Terminal Aerodrome Forecast
Issued by NWS

Home | Current Version | Previous Version | Text Only | Print | Product List | Glossary On
Versions: 1 2 3 4 5 6 7 8 9 10 11 12 13 14 15 16 17
000
FTUS43 KBIS 311134
TAFDIK
TAF
KDIK 311134Z 3112/0112 31012KT P6SM BKN150 OVC250
     FM311400 30017G23KT P6SM SCT250
     FM312100 27014G20KT P6SM SKC
     FM010200 22005KT P6SM SKC=

USA.gov is the U.S. government's official web portal to all federal, state and local government web resources and services.